sensor_id;sensor_type;location;lat;lon;timestamp;P1;P2;P0
74426;PMS7003;62859;53.906;27.430;2023-06-22T00:02:14;8.7;7.7;5.7
74426;PMS7003;62859;53.906;27.430;2023-06-22T00:07:26;12;10.3;7
74426;PMS7003;62859;53.906;27.430;2023-06-22T00:11:52;11.8;10;7
74426;PMS7003;62859;53.906;27.430;2023-06-22T00:17:21;8.3;8;6.3
74426;PMS7003;62859;53.906;27.430;2023-06-22T00:21:58;10.7;10;7.3
74426;PMS7003;62859;53.906;27.430;2023-06-22T00:26:50;12.7;10.7;7.7
74426;PMS7003;62859;53.906;27.430;2023-06-22T00:31:50;12.3;10.5;7.5
74426;PMS7003;62859;53.906;27.430;2023-06-22T00:37:24;10.7;9.3;7.3
74426;PMS7003;62859;53.906;27.430;2023-06-22T00:42:06;13;11;8.3
74426;PMS7003;62859;53.906;27.430;2023-06-22T00:47:20;12.3;10;7
74426;PMS7003;62859;53.906;27.430;2023-06-22T00:52:34;11.8;10.3;7.3
74426;PMS7003;62859;53.906;27.430;2023-06-22T00:57:26;12.3;10.3;8
74426;PMS7003;62859;53.906;27.430;2023-06-22T01:01:50;9.7;9;7.3
74426;PMS7003;62859;53.906;27.430;2023-06-22T01:07:25;12;10.8;8
74426;PMS7003;62859;53.906;27.430;2023-06-22T01:12:34;12.7;11.3;8.7
74426;PMS7003;62859;53.906;27.430;2023-06-22T01:17:32;13;11.3;8
74426;PMS7003;62859;53.906;27.430;2023-06-22T01:22:40;13;10.7;8
74426;PMS7003;62859;53.906;27.430;2023-06-22T01:27:39;12.5;12.3;8.8
74426;PMS7003;62859;53.906;27.430;2023-06-22T01:32:00;13.7;12.7;9.3
74426;PMS7003;62859;53.906;27.430;2023-06-22T01:37:00;12.7;12.7;9
74426;PMS7003;62859;53.906;27.430;2023-06-22T01:42:02;13.7;10.3;8.3
74426;PMS7003;62859;53.906;27.430;2023-06-22T01:47:38;11.5;10.8;8.3
74426;PMS7003;62859;53.906;27.430;2023-06-22T01:52:26;11;11;8.3
74426;PMS7003;62859;53.906;27.430;2023-06-22T01:57:28;12.3;12.3;9
74426;PMS7003;62859;53.906;27.430;2023-06-22T02:02:04;14;13;9.3
74426;PMS7003;62859;53.906;27.430;2023-06-22T02:06:51;13.3;11.3;8.5
74426;PMS7003;62859;53.906;27.430;2023-06-22T02:11:50;14.3;12.3;9.3
74426;PMS7003;62859;53.906;27.430;2023-06-22T02:17:04;15;14.3;10.7
74426;PMS7003;62859;53.906;27.430;2023-06-22T02:22:38;15.7;14.3;10.7
74426;PMS7003;62859;53.906;27.430;2023-06-22T02:27:02;12.8;12;9.3
74426;PMS7003;62859;53.906;27.430;2023-06-22T02:32:26;16;14.3;10.7
74426;PMS7003;62859;53.906;27.430;2023-06-22T02:37:00;13;12.7;8.3
74426;PMS7003;62859;53.906;27.430;2023-06-22T02:41:50;17.7;12.7;9
74426;PMS7003;62859;53.906;27.430;2023-06-22T02:47:36;13.3;12.8;9.3
74426;PMS7003;62859;53.906;27.430;2023-06-22T02:52:04;15;14.3;10
74426;PMS7003;62859;53.906;27.430;2023-06-22T02:57:22;16.7;14.3;10.3
74426;PMS7003;62859;53.906;27.430;2023-06-22T03:02:12;17;15.5;11.5
74426;PMS7003;62859;53.906;27.430;2023-06-22T03:07:38;14.7;13.7;10
74426;PMS7003;62859;53.906;27.430;2023-06-22T03:11:50;14.7;14.3;10
74426;PMS7003;62859;53.906;27.430;2023-06-22T03:16:50;16;15;10.3
74426;PMS7003;62859;53.906;27.430;2023-06-22T03:22:38;15.5;15.3;11.3
74426;PMS7003;62859;53.906;27.430;2023-06-22T03:27:16;16;15.3;11.3
74426;PMS7003;62859;53.906;27.430;2023-06-22T03:32:10;15.7;13.7;10.7
74426;PMS7003;62859;53.906;27.430;2023-06-22T03:37:12;15;14;10.7
74426;PMS7003;62859;53.906;27.430;2023-06-22T03:42:38;16.3;13.5;10.5
74426;PMS7003;62859;53.906;27.430;2023-06-22T03:46:50;15.3;13;10
74426;PMS7003;62859;53.906;27.430;2023-06-22T03:52:00;17.7;15.7;11.7
74426;PMS7003;62859;53.906;27.430;2023-06-22T03:57:36;18;16.3;11
74426;PMS7003;62859;53.906;27.430;2023-06-22T04:02:12;19.3;16.5;11.8
74426;PMS7003;62859;53.906;27.430;2023-06-22T04:07:00;17.7;16.3;11.3
74426;PMS7003;62859;53.906;27.430;2023-06-22T04:12:12;16.7;15.7;11
74426;PMS7003;62859;53.906;27.430;2023-06-22T04:17:20;19.3;17.3;11.3
74426;PMS7003;62859;53.906;27.430;2023-06-22T04:22:04;17;15.8;12
74426;PMS7003;62859;53.906;27.430;2023-06-22T04:27:14;21.3;18;12.7
74426;PMS7003;62859;53.906;27.430;2023-06-22T04:32:38;18.7;16.3;11.7
74426;PMS7003;62859;53.906;27.430;2023-06-22T04:37:20;17.3;15;11
74426;PMS7003;62859;53.906;27.430;2023-06-22T04:42:00;17;15.5;12
74426;PMS7003;62859;53.906;27.430;2023-06-22T04:47:12;17.3;15.7;11.7
74426;PMS7003;62859;53.906;27.430;2023-06-22T04:52:02;21;19.3;14.3
74426;PMS7003;62859;53.906;27.430;2023-06-22T04:57:00;19.3;17.8;12.3
74426;PMS7003;62859;53.906;27.430;2023-06-22T05:02:16;17.7;14.7;11
74426;PMS7003;62859;53.906;27.430;2023-06-22T05:07:12;18;17;12
74426;PMS7003;62859;53.906;27.430;2023-06-22T05:12:22;18.7;18;11.7
74426;PMS7003;62859;53.906;27.430;2023-06-22T05:17:22;18.8;16.8;11.5
74426;PMS7003;62859;53.906;27.430;2023-06-22T05:21:50;21.3;17.7;12.7
74426;PMS7003;62859;53.906;27.430;2023-06-22T05:27:00;17.3;15.3;11.7
74426;PMS7003;62859;53.906;27.430;2023-06-22T05:31:50;18;17.3;10.7
74426;PMS7003;62859;53.906;27.430;2023-06-22T05:37:36;18.8;15.5;10.5
74426;PMS7003;62859;53.906;27.430;2023-06-22T05:42:08;16.3;14;10.3
74426;PMS7003;62859;53.906;27.430;2023-06-22T05:47:12;14;13;10
74426;PMS7003;62859;53.906;27.430;2023-06-22T05:52:38;15.7;13.7;10.3
74426;PMS7003;62859;53.906;27.430;2023-06-22T05:57:28;16;13.8;9.8
74426;PMS7003;62859;53.906;27.430;2023-06-22T06:02:12;15;14;10
74426;PMS7003;62859;53.906;27.430;2023-06-22T06:07:26;15.7;14;10.7
74426;PMS7003;62859;53.906;27.430;2023-06-22T06:12:38;14.3;13.3;9.7
74426;PMS7003;62859;53.906;27.430;2023-06-22T06:17:41;15.5;13.3;9.5
74426;PMS7003;62859;53.906;27.430;2023-06-22T06:22:38;13.3;12.3;9
74426;PMS7003;62859;53.906;27.430;2023-06-22T06:27:38;13.7;12;9
74426;PMS7003;62859;53.906;27.430;2023-06-22T06:31:50;12.7;12;9.3
74426;PMS7003;62859;53.906;27.430;2023-06-22T06:37:14;12.5;11.3;8.5
74426;PMS7003;62859;53.906;27.430;2023-06-22T06:42:26;13;11.3;8.7
74426;PMS7003;62859;53.906;27.430;2023-06-22T06:47:36;13;12;9
74426;PMS7003;62859;53.906;27.430;2023-06-22T06:52:24;11.3;10.5;8.5
74426;PMS7003;62859;53.906;27.430;2023-06-22T06:57:26;11.7;11;8.7
74426;PMS7003;62859;53.906;27.430;2023-06-22T07:02:37;13;11.7;7.7
74426;PMS7003;62859;53.906;27.430;2023-06-22T07:06:50;12.7;11.7;9
74426;PMS7003;62859;53.906;27.430;2023-06-22T07:11:50;13;12;8
74426;PMS7003;62859;53.906;27.430;2023-06-22T07:16:50;14;11.7;9.7
74426;PMS7003;62859;53.906;27.430;2023-06-22T07:22:34;14;12.3;9
74426;PMS7003;62859;53.906;27.430;2023-06-22T07:27:24;13.7;13.3;8.7
74426;PMS7003;62859;53.906;27.430;2023-06-22T07:32:36;13.3;12.5;8.8
74426;PMS7003;62859;53.906;27.430;2023-06-22T07:36:50;13;11.3;8.7
74426;PMS7003;62859;53.906;27.430;2023-06-22T07:42:10;10.3;10;7.7
74426;PMS7003;62859;53.906;27.430;2023-06-22T07:47:22;12.7;11;7.3
74426;PMS7003;62859;53.906;27.430;2023-06-22T07:52:02;14.3;11.8;8.3
74426;PMS7003;62859;53.906;27.430;2023-06-22T07:57:08;12.3;10.7;8.3
74426;PMS7003;62859;53.906;27.430;2023-06-22T08:02:10;12.3;12;8.7
74426;PMS7003;62859;53.906;27.430;2023-06-22T08:07:36;12.3;12;8.3
74426;PMS7003;62859;53.906;27.430;2023-06-22T08:12:00;11.5;11;7.5
74426;PMS7003;62859;53.906;27.430;2023-06-22T08:16:50;10.3;9.7;7.3
74426;PMS7003;62859;53.906;27.430;2023-06-22T08:22:36;11.7;9.7;7.3
74426;PMS7003;62859;53.906;27.430;2023-06-22T08:27:24;10.3;9.7;7.7
74426;PMS7003;62859;53.906;27.430;2023-06-22T08:32:09;11;10.5;7.8
74426;PMS7003;62859;53.906;27.430;2023-06-22T08:37:10;10.7;9;6
74426;PMS7003;62859;53.906;27.430;2023-06-22T08:42:04;11;11;8.3
74426;PMS7003;62859;53.906;27.430;2023-06-22T08:47:00;15;12.5;9
74426;PMS7003;62859;53.906;27.430;2023-06-22T08:52:04;14.3;13.7;9.7
74426;PMS7003;62859;53.906;27.430;2023-06-22T08:57:38;12.7;10.7;7.7
74426;PMS7003;62859;53.906;27.430;2023-06-22T09:02:20;13.7;13.3;10
74426;PMS7003;62859;53.906;27.430;2023-06-22T09:07:08;11.3;10.5;7.5
74426;PMS7003;62859;53.906;27.430;2023-06-22T09:12:12;12;10;6.3
74426;PMS7003;62859;53.906;27.430;2023-06-22T09:17:20;10.7;9;7
74426;PMS7003;62859;53.906;27.430;2023-06-22T09:21:50;10.7;9.7;7
74426;PMS7003;62859;53.906;27.430;2023-06-22T09:27:14;10;9.8;7
74426;PMS7003;62859;53.906;27.430;2023-06-22T09:32:26;10.3;9.3;6.3
74426;PMS7003;62859;53.906;27.430;2023-06-22T09:37:22;11;10;7.3
74426;PMS7003;62859;53.906;27.430;2023-06-22T09:42:22;10;9;7.7
74426;PMS7003;62859;53.906;27.430;2023-06-22T09:47:12;8;8;6.3
74426;PMS7003;62859;53.906;27.430;2023-06-22T09:51:51;10.7;10;6.3
74426;PMS7003;62859;53.906;27.430;2023-06-22T09:56:58;11;10;7.7
74426;PMS7003;62859;53.906;27.430;2023-06-22T10:02:38;9.3;8.7;6.3
74426;PMS7003;62859;53.906;27.430;2023-06-22T10:07:08;9.8;8.5;6.3
74426;PMS7003;62859;53.906;27.430;2023-06-22T10:12:22;9.3;8.7;6.3
74426;PMS7003;62859;53.906;27.430;2023-06-22T10:17:34;10.7;10;7
74426;PMS7003;62859;53.906;27.430;2023-06-22T10:21:52;12.3;10.7;7.3
74426;PMS7003;62859;53.906;27.430;2023-06-22T10:27:02;9.7;9.7;7.3
74426;PMS7003;62859;53.906;27.430;2023-06-22T10:32:40;12;10.7;8
74426;PMS7003;62859;53.906;27.430;2023-06-22T10:37:40;10.8;9.8;7.5
74426;PMS7003;62859;53.906;27.430;2023-06-22T10:42:26;10;9;7
74426;PMS7003;62859;53.906;27.430;2023-06-22T10:47:40;12.3;11;8.3
74426;PMS7003;62859;53.906;27.430;2023-06-22T10:52:38;12;10;8
74426;PMS7003;62859;53.906;27.430;2023-06-22T10:56:50;10;9;6.8
74426;PMS7003;62859;53.906;27.430;2023-06-22T11:02:14;9.7;8.7;7
74426;PMS7003;62859;53.906;27.430;2023-06-22T11:07:40;11;10;6.7
74426;PMS7003;62859;53.906;27.430;2023-06-22T11:12:36;9.3;8.7;6.3
74426;PMS7003;62859;53.906;27.430;2023-06-22T11:17:24;11.8;11;8.3
74426;PMS7003;62859;53.906;27.430;2023-06-22T11:22:28;11;10.3;8
74426;PMS7003;62859;53.906;27.430;2023-06-22T11:27:38;11.3;9.3;6.7
74426;PMS7003;62859;53.906;27.430;2023-06-22T11:31:58;19;15.3;11.3
74426;PMS7003;62859;53.906;27.430;2023-06-22T11:37:00;13.5;12;8.5
74426;PMS7003;62859;53.906;27.430;2023-06-22T11:42:36;16.3;13.3;9.7
74426;PMS7003;62859;53.906;27.430;2023-06-22T11:47:22;11.7;11.3;8.7
74426;PMS7003;62859;53.906;27.430;2023-06-22T11:52:22;12.5;11.5;8.8
74426;PMS7003;62859;53.906;27.430;2023-06-22T11:57:38;12.3;12.3;9
74426;PMS7003;62859;53.906;27.430;2023-06-22T12:02:00;11;10;7.7
74426;PMS7003;62859;53.906;27.430;2023-06-22T12:06:58;13.7;11.7;8.7
74426;PMS7003;62859;53.906;27.430;2023-06-22T12:12:24;11.5;9.5;8
74426;PMS7003;62859;53.906;27.430;2023-06-22T12:17:12;13.7;10.3;7.7
74426;PMS7003;62859;53.906;27.430;2023-06-22T12:22:06;12.7;10.3;7.7
74426;PMS7003;62859;53.906;27.430;2023-06-22T12:27:10;15.7;13;10
74426;PMS7003;62859;53.906;27.430;2023-06-22T12:32:36;16;13.8;10.3
74426;PMS7003;62859;53.906;27.430;2023-06-22T12:36:50;13.7;12;9.3
74426;PMS7003;62859;53.906;27.430;2023-06-22T12:41:50;15.3;14.7;10.3
74426;PMS7003;62859;53.906;27.430;2023-06-22T12:47:38;14.7;14;10.3
74426;PMS7003;62859;53.906;27.430;2023-06-22T12:52:23;19.3;16;12.3
74426;PMS7003;62859;53.906;27.430;2023-06-22T12:56:50;15.7;14.3;10
74426;PMS7003;62859;53.906;27.430;2023-06-22T13:02:12;16.7;14.3;11
74426;PMS7003;62859;53.906;27.430;2023-06-22T13:07:14;14.7;12.7;9
74426;PMS7003;62859;53.906;27.430;2023-06-22T13:11:50;15.8;14.8;10.5
74426;PMS7003;62859;53.906;27.430;2023-06-22T13:17:14;18.3;15;11.7
74426;PMS7003;62859;53.906;27.430;2023-06-22T13:22:38;18.3;15.3;11
74426;PMS7003;62859;53.906;27.430;2023-06-22T13:27:36;17.3;15.7;11.3
74426;PMS7003;62859;53.906;27.430;2023-06-22T13:32:08;15.8;14.3;10.8
74426;PMS7003;62859;53.906;27.430;2023-06-22T13:37:02;16;15;12
74426;PMS7003;62859;53.906;27.430;2023-06-22T13:41:50;15.7;14.7;10.7
74426;PMS7003;62859;53.906;27.430;2023-06-22T13:46:50;14.5;13;9.5
74426;PMS7003;62859;53.906;27.430;2023-06-22T13:52:12;14;13.7;9.3
74426;PMS7003;62859;53.906;27.430;2023-06-22T13:57:26;13.7;12.3;9.3
74426;PMS7003;62859;53.906;27.430;2023-06-22T14:02:22;14.3;13;8.3
74426;PMS7003;62859;53.906;27.430;2023-06-22T14:07:20;12;11.5;7.5
74426;PMS7003;62859;53.906;27.430;2023-06-22T14:12:10;11.7;10.7;8
74426;PMS7003;62859;53.906;27.430;2023-06-22T14:16:50;10.7;9.7;7.3
74426;PMS7003;62859;53.906;27.430;2023-06-22T14:21:50;12.3;10.3;7.3
74426;PMS7003;62859;53.906;27.430;2023-06-22T14:27:38;10;9.8;6.3
74426;PMS7003;62859;53.906;27.430;2023-06-22T14:31:50;8.7;8.3;5.7
74426;PMS7003;62859;53.906;27.430;2023-06-22T14:37:22;8;7.3;5.7
74426;PMS7003;62859;53.906;27.430;2023-06-22T14:42:38;10;9;6.3
74426;PMS7003;62859;53.906;27.430;2023-06-22T14:47:26;11.3;10.3;7
74426;PMS7003;62859;53.906;27.430;2023-06-22T14:52:02;11.7;9.7;7.7
74426;PMS7003;62859;53.906;27.430;2023-06-22T14:57:28;11.3;11;8.3
74426;PMS7003;62859;53.906;27.430;2023-06-22T15:02:36;10.3;9.7;7.3
74426;PMS7003;62859;53.906;27.430;2023-06-22T15:07:39;12;11;8
74426;PMS7003;62859;53.906;27.430;2023-06-22T15:12:38;12;11;8
74426;PMS7003;62859;53.906;27.430;2023-06-22T15:17:38;14.7;12.3;8.3
74426;PMS7003;62859;53.906;27.430;2023-06-22T15:22:07;13.3;12;8.7
74426;PMS7003;62859;53.906;27.430;2023-06-22T15:26:50;12.8;11.5;8.5
74426;PMS7003;62859;53.906;27.430;2023-06-22T15:32:26;13.7;12.7;8.7
74426;PMS7003;62859;53.906;27.430;2023-06-22T15:37:36;12.7;12.3;9.3
74426;PMS7003;62859;53.906;27.430;2023-06-22T15:42:14;13;11.5;7.8
74426;PMS7003;62859;53.906;27.430;2023-06-22T15:47:26;12;11;8.3
74426;PMS7003;62859;53.906;27.430;2023-06-22T15:52:22;13.7;12;9.3
74426;PMS7003;62859;53.906;27.430;2023-06-22T15:56:50;12.3;11.7;8.7
74426;PMS7003;62859;53.906;27.430;2023-06-22T16:01:58;14.3;12.5;9
74426;PMS7003;62859;53.906;27.430;2023-06-22T16:07:14;11.7;11.3;8.7
74426;PMS7003;62859;53.906;27.430;2023-06-22T16:12:40;13;11;8.3
74426;PMS7003;62859;53.906;27.430;2023-06-22T16:17:24;12.3;11;8.3
74426;PMS7003;62859;53.906;27.430;2023-06-22T16:22:36;15.3;13;9.3
74426;PMS7003;62859;53.906;27.430;2023-06-22T16:26:50;13.3;11.7;9
74426;PMS7003;62859;53.906;27.430;2023-06-22T16:32:03;12.7;11.3;8.7
74426;PMS7003;62859;53.906;27.430;2023-06-22T16:37:22;13.3;11.3;8.3
74426;PMS7003;62859;53.906;27.430;2023-06-22T16:42:14;14.5;10.5;8.3
74426;PMS7003;62859;53.906;27.430;2023-06-22T16:47:08;12;11;8.3
74426;PMS7003;62859;53.906;27.430;2023-06-22T16:52:12;14.7;12.7;10
74426;PMS7003;62859;53.906;27.430;2023-06-22T16:57:38;13.3;12;9
74426;PMS7003;62859;53.906;27.430;2023-06-22T17:02:14;15.8;13.8;10.5
74426;PMS7003;62859;53.906;27.430;2023-06-22T17:07:04;17.7;16.3;12.3
74426;PMS7003;62859;53.906;27.430;2023-06-22T17:12:25;17;15.7;10.7
74426;PMS7003;62859;53.906;27.430;2023-06-22T17:17:00;15.3;13.7;9.7
74426;PMS7003;62859;53.906;27.430;2023-06-22T17:22:06;17.3;15;10.8
74426;PMS7003;62859;53.906;27.430;2023-06-22T17:27:00;15;13.7;9
74426;PMS7003;62859;53.906;27.430;2023-06-22T17:32:22;14.3;13.3;9.7
74426;PMS7003;62859;53.906;27.430;2023-06-22T17:37:04;15.3;12.5;9
74426;PMS7003;62859;53.906;27.430;2023-06-22T17:41:51;14;12;9.7
74426;PMS7003;62859;53.906;27.430;2023-06-22T17:47:34;13.7;12.3;9
74426;PMS7003;62859;53.906;27.430;2023-06-22T17:52:22;13.7;13;9.3
74426;PMS7003;62859;53.906;27.430;2023-06-22T17:57:13;12.8;11.3;8
74426;PMS7003;62859;53.906;27.430;2023-06-22T18:02:26;13.3;12.3;8.7
74426;PMS7003;62859;53.906;27.430;2023-06-22T18:07:10;15;13.3;10
74426;PMS7003;62859;53.906;27.430;2023-06-22T18:11:50;15;12.3;9.3
74426;PMS7003;62859;53.906;27.430;2023-06-22T18:16:51;16;13.8;10.3
74426;PMS7003;62859;53.906;27.430;2023-06-22T18:22:27;16.7;15.3;11
74426;PMS7003;62859;53.906;27.430;2023-06-22T18:27:20;16.3;15.3;11.7
74426;PMS7003;62859;53.906;27.430;2023-06-22T18:32:21;14;13;10
74426;PMS7003;62859;53.906;27.430;2023-06-22T18:37:11;18;17.3;13
74426;PMS7003;62859;53.906;27.430;2023-06-22T18:42:11;17.3;15.7;11
74426;PMS7003;62859;53.906;27.430;2023-06-22T18:47:00;17.3;16.3;11.7
74426;PMS7003;62859;53.906;27.430;2023-06-22T18:52:14;19.3;16.7;11.7
74426;PMS7003;62859;53.906;27.430;2023-06-22T18:56:59;17.3;15.8;11.8
74426;PMS7003;62859;53.906;27.430;2023-06-22T19:02:57;20;19;13.3
74426;PMS7003;62859;53.906;27.430;2023-06-22T19:07:55;22.3;20.3;13.7
74426;PMS7003;62859;53.906;27.430;2023-06-22T19:12:25;24;23;16
74426;PMS7003;62859;53.906;27.430;2023-06-22T19:17:03;24.3;22.3;16.3
74426;PMS7003;62859;53.906;27.430;2023-06-22T19:22:37;24.7;23;16.7
74426;PMS7003;62859;53.906;27.430;2023-06-22T19:27:33;26.3;23;16.7
74426;PMS7003;62859;53.906;27.430;2023-06-22T19:32:33;25.5;23.5;17
74426;PMS7003;62859;53.906;27.430;2023-06-22T19:37:34;26.3;24;17
74426;PMS7003;62859;53.906;27.430;2023-06-22T19:42:33;25.7;23.3;16.3
74426;PMS7003;62859;53.906;27.430;2023-06-22T19:46:59;28.3;26.3;18.7
74426;PMS7003;62859;53.906;27.430;2023-06-22T19:52:04;25.3;24.3;16.8
74426;PMS7003;62859;53.906;27.430;2023-06-22T19:57:25;30.7;27.7;18.3
74426;PMS7003;62859;53.906;27.430;2023-06-22T20:02:33;30.7;27.3;19
74426;PMS7003;62859;53.906;27.430;2023-06-22T20:07:09;28;27.3;18.7
74426;PMS7003;62859;53.906;27.430;2023-06-22T20:12:25;27.8;24.8;18.3
74426;PMS7003;62859;53.906;27.430;2023-06-22T20:17:39;29.7;26.3;18
74426;PMS7003;62859;53.906;27.430;2023-06-22T20:22:13;28.3;25.3;17.3
74426;PMS7003;62859;53.906;27.430;2023-06-22T20:26:59;24.3;22.7;16.3
74426;PMS7003;62859;53.906;27.430;2023-06-22T20:32:11;28.3;26.5;18.3
74426;PMS7003;62859;53.906;27.430;2023-06-22T20:37:07;26.3;24;16.7
74426;PMS7003;62859;53.906;27.430;2023-06-22T20:42:21;25.7;23.7;16
74426;PMS7003;62859;53.906;27.430;2023-06-22T20:47:33;27.3;24.7;17.7
74426;PMS7003;62859;53.906;27.430;2023-06-22T20:52:35;26;24.3;17.5
74426;PMS7003;62859;53.906;27.430;2023-06-22T20:56:59;25.3;24;17
74426;PMS7003;62859;53.906;27.430;2023-06-22T21:02:21;24;20.7;14.3
74426;PMS7003;62859;53.906;27.430;2023-06-22T21:06:51;23.8;22.3;14.8
74426;PMS7003;62859;53.906;27.430;2023-06-22T21:11:51;23.7;23;16
74426;PMS7003;62859;53.906;27.430;2023-06-22T21:16:59;25.3;23.3;17
74426;PMS7003;62859;53.906;27.430;2023-06-22T21:22:35;22.3;19.7;15.3
74426;PMS7003;62859;53.906;27.430;2023-06-22T21:26:51;22.5;20.8;15
74426;PMS7003;62859;53.906;27.430;2023-06-22T21:31:51;20.3;19;14.3
74426;PMS7003;62859;53.906;27.430;2023-06-22T21:37:35;21.7;20.3;13.3
74426;PMS7003;62859;53.906;27.430;2023-06-22T21:42:19;18.7;17.7;12.7
74426;PMS7003;62859;53.906;27.430;2023-06-22T21:46:51;19.5;17.5;13.3
74426;PMS7003;62859;53.906;27.430;2023-06-22T21:51:51;19.3;18.3;13
74426;PMS7003;62859;53.906;27.430;2023-06-22T21:57:21;18.7;17.7;13
74426;PMS7003;62859;53.906;27.430;2023-06-22T22:02:09;20.7;18;12.3
74426;PMS7003;62859;53.906;27.430;2023-06-22T22:06:59;16;15.5;11.5
74426;PMS7003;62859;53.906;27.430;2023-06-22T22:12:35;15.3;15;11.3
74426;PMS7003;62859;53.906;27.430;2023-06-22T22:17:21;19.7;15.7;11.3
74426;PMS7003;62859;53.906;27.430;2023-06-22T22:22:07;15.7;15.7;11.7
74426;PMS7003;62859;53.906;27.430;2023-06-22T22:27:11;16;16;11.8
74426;PMS7003;62859;53.906;27.430;2023-06-22T22:32:11;16.7;15.3;10.3
74426;PMS7003;62859;53.906;27.430;2023-06-22T22:36:51;15.3;14.3;10.7
74426;PMS7003;62859;53.906;27.430;2023-06-22T22:41:59;17;15;10.7
74426;PMS7003;62859;53.906;27.430;2023-06-22T22:47:25;16.8;16;11.3
74426;PMS7003;62859;53.906;27.430;2023-06-22T22:52:13;16;14.7;10.3
74426;PMS7003;62859;53.906;27.430;2023-06-22T22:57:21;18.3;15.3;10.3
74426;PMS7003;62859;53.906;27.430;2023-06-22T23:02:11;16;14.5;10
74426;PMS7003;62859;53.906;27.430;2023-06-22T23:06:51;15.7;14.3;10.3
74426;PMS7003;62859;53.906;27.430;2023-06-22T23:11:51;17;15.3;10.7
74426;PMS7003;62859;53.906;27.430;2023-06-22T23:17:35;17.3;13.7;10.3
74426;PMS7003;62859;53.906;27.430;2023-06-22T23:22:07;15.8;14;10.5
74426;PMS7003;62859;53.906;27.430;2023-06-22T23:27:13;14.7;13.3;9.3
74426;PMS7003;62859;53.906;27.430;2023-06-22T23:32:35;16;16;11
74426;PMS7003;62859;53.906;27.430;2023-06-22T23:37:25;18.7;15;11
74426;PMS7003;62859;53.906;27.430;2023-06-22T23:42:09;16.3;14.3;10.8
74426;PMS7003;62859;53.906;27.430;2023-06-22T23:47:25;15.3;13.7;9.7
74426;PMS7003;62859;53.906;27.430;2023-06-22T23:52:35;13.7;12.7;9.3
74426;PMS7003;62859;53.906;27.430;2023-06-22T23:57:35;16.3;14.3;10.3
